Weather at Khoram Abad Airport

Public forecast

Using degrees Celsius for public forecast. Weather courtesy of forecast.io.

Current aviation weather report (METAR) for Khoram Abad Airport

Retrieved 2022/06/28 23:51 UTC (2 hours ago):

OICK 282351Z 00000KT CAVOK 19/M04 Q1009

Closest aviation forecast (TAF) to Khoram Abad Airport

Forecast is more than 12 hours old.

Closest forecast is Dezful Airport, 60.4 nm (111.8 km) S. Retrieved 2010/02/21 18:30 UTC (12 years ago):

TAF OIAW/OIAA/OIAM/OIAD 211830Z 2121/2212 29005MPS 8000 SKC BECMG 2200/2202 15004MPS 4000 BR PROB30 TEMPO 2202/2204 2500 BR SKC BECMG 2204/2206 9999 FEW030 BKN100 BECMG 2208/2210 FEW035CB SCT040 TEMPO 2211/2212 25007G12MPS 4000 TS RA FEW030CB SCT035 BKN090